OYATS EKRK-ZZZZ
Flight info
| Callsign | OYATS |
|---|---|
| Flight time | N/A |
| Altitude | 1500 |
| Route | DCT |
| Aircraft | C172/L-SFG/C |
Departure
| Time | 2026-05-09 12:50 |
|---|---|
| Airport | Copenhagen Roskilde Airport (EKRK) |
Arrival
| Time | N/A |
|---|---|
| Airport | ZZZZ |
| Time | Latitude | Longitude | Altitude | Speed | Heading |
|---|---|---|---|---|---|
| 2026-05-09 12:33 | 55.58924 | 12.12869 | 142 ft | 0 kts | 26° |
| 2026-05-09 12:36 | 55.58924 | 12.12870 | 142 ft | 0 kts | 27° |
| 2026-05-09 12:36 | 55.58932 | 12.12874 | 142 ft | 2 kts | 6° |
| 2026-05-09 12:36 | 55.58957 | 12.12850 | 142 ft | 6 kts | 315° |
| 2026-05-09 12:37 | 55.58991 | 12.12770 | 142 ft | 9 kts | 301° |
| 2026-05-09 12:37 | 55.59024 | 12.12656 | 142 ft | 11 kts | 293° |
| 2026-05-09 12:37 | 55.58992 | 12.12563 | 142 ft | 10 kts | 203° |
| 2026-05-09 12:37 | 55.58933 | 12.12472 | 141 ft | 14 kts | 283° |
| 2026-05-09 12:38 | 55.58971 | 12.12304 | 142 ft | 14 kts | 295° |
| 2026-05-09 12:38 | 55.59012 | 12.12155 | 142 ft | 12 kts | 295° |
| 2026-05-09 12:38 | 55.59052 | 12.12022 | 142 ft | 11 kts | 293° |
| 2026-05-09 12:38 | 55.59082 | 12.11899 | 143 ft | 9 kts | 289° |
| 2026-05-09 12:39 | 55.59078 | 12.11793 | 143 ft | 8 kts | 256° |
| 2026-05-09 12:39 | 55.59065 | 12.11717 | 143 ft | 0 kts | 253° |
| 2026-05-09 12:41 | 55.59064 | 12.11713 | 143 ft | 2 kts | 253° |
| 2026-05-09 12:41 | 55.59045 | 12.11637 | 143 ft | 10 kts | 230° |
| 2026-05-09 12:42 | 55.58990 | 12.11622 | 143 ft | 6 kts | 142° |
| 2026-05-09 12:42 | 55.58954 | 12.11715 | 143 ft | 23 kts | 117° |
| 2026-05-09 12:42 | 55.58796 | 12.12261 | 154 ft | 70 kts | 112° |
| 2026-05-09 12:42 | 55.58540 | 12.13134 | 243 ft | 84 kts | 114° |
| 2026-05-09 12:43 | 55.58247 | 12.14070 | 295 ft | 90 kts | 117° |
| 2026-05-09 12:43 | 55.57941 | 12.15048 | 350 ft | 91 kts | 116° |
| 2026-05-09 12:43 | 55.57555 | 12.15850 | 466 ft | 84 kts | 169° |
| 2026-05-09 12:43 | 55.56991 | 12.15487 | 529 ft | 88 kts | 199° |
| 2026-05-09 12:44 | 55.56539 | 12.14777 | 551 ft | 99 kts | 259° |
| 2026-05-09 12:44 | 55.56768 | 12.13654 | 622 ft | 98 kts | 303° |
| 2026-05-09 12:44 | 55.57142 | 12.12625 | 609 ft | 107 kts | 301° |
| 2026-05-09 12:44 | 55.57592 | 12.11546 | 591 ft | 109 kts | 310° |
| 2026-05-09 12:45 | 55.58081 | 12.10528 | 605 ft | 109 kts | 310° |
| 2026-05-09 12:45 | 55.58601 | 12.09576 | 641 ft | 107 kts | 315° |
| 2026-05-09 12:45 | 55.59082 | 12.08587 | 678 ft | 105 kts | 307° |
| 2026-05-09 12:45 | 55.59543 | 12.07591 | 744 ft | 101 kts | 316° |
| 2026-05-09 12:46 | 55.60177 | 12.07413 | 675 ft | 101 kts | 41° |
| 2026-05-09 12:46 | 55.60223 | 12.08485 | 608 ft | 98 kts | 135° |
| 2026-05-09 12:46 | 55.59787 | 12.09038 | 739 ft | 58 kts | 122° |
| 2026-05-09 12:46 | 55.59557 | 12.09691 | 514 ft | 63 kts | 123° |
| 2026-05-09 12:47 | 55.59332 | 12.10343 | 337 ft | 63 kts | 120° |
| 2026-05-09 12:47 | 55.59141 | 12.11005 | 249 ft | 56 kts | 116° |
| 2026-05-09 12:47 | 55.58986 | 12.11613 | 149 ft | 52 kts | 116° |
| 2026-05-09 12:47 | 55.58837 | 12.12125 | 141 ft | 50 kts | 109° |
| 2026-05-09 12:48 | 55.58628 | 12.12874 | 180 ft | 76 kts | 116° |
| 2026-05-09 12:48 | 55.58382 | 12.13731 | 260 ft | 80 kts | 116° |
| 2026-05-09 12:48 | 55.58127 | 12.14600 | 353 ft | 82 kts | 121° |
| 2026-05-09 12:48 | 55.57820 | 12.15465 | 452 ft | 79 kts | 138° |
| 2026-05-09 12:49 | 55.57274 | 12.15482 | 480 ft | 87 kts | 195° |
| 2026-05-09 12:49 | 55.56716 | 12.15001 | 565 ft | 88 kts | 201° |
| 2026-05-09 12:49 | 55.56450 | 12.14069 | 545 ft | 102 kts | 277° |
| 2026-05-09 12:49 | 55.56533 | 12.12923 | 687 ft | 93 kts | 275° |
| 2026-05-09 12:50 | 55.56812 | 12.11886 | 679 ft | 102 kts | 307° |
| 2026-05-09 12:50 | 55.57271 | 12.10955 | 744 ft | 98 kts | 319° |
| 2026-05-09 12:50 | 55.57852 | 12.10307 | 795 ft | 98 kts | 331° |
| 2026-05-09 12:50 | 55.58437 | 12.09670 | 850 ft | 98 kts | 327° |
| 2026-05-09 12:51 | 55.58968 | 12.08895 | 876 ft | 100 kts | 318° |
| 2026-05-09 12:51 | 55.59456 | 12.08014 | 920 ft | 101 kts | 310° |
| 2026-05-09 12:51 | 55.59931 | 12.07345 | 998 ft | 83 kts | 1° |
| 2026-05-09 12:51 | 55.60101 | 12.08101 | 762 ft | 89 kts | 129° |
| 2026-05-09 12:52 | 55.59819 | 12.08723 | 748 ft | 60 kts | 118° |
| 2026-05-09 12:52 | 55.59598 | 12.09356 | 563 ft | 60 kts | 121° |
| 2026-05-09 12:52 | 55.59436 | 12.10024 | 400 ft | 59 kts | 116° |
| 2026-05-09 12:52 | 55.59251 | 12.10651 | 275 ft | 57 kts | 112° |
| 2026-05-09 12:53 | 55.59079 | 12.11248 | 206 ft | 53 kts | 114° |
| 2026-05-09 12:53 | 55.58931 | 12.11816 | 143 ft | 44 kts | 122° |
| 2026-05-09 12:53 | 55.58773 | 12.12401 | 165 ft | 67 kts | 117° |
| 2026-05-09 12:53 | 55.58507 | 12.13183 | 293 ft | 80 kts | 119° |
| 2026-05-09 12:54 | 55.58248 | 12.14041 | 398 ft | 79 kts | 115° |
| 2026-05-09 12:54 | 55.57973 | 12.14883 | 502 ft | 79 kts | 118° |
| 2026-05-09 12:54 | 55.57539 | 12.15295 | 567 ft | 88 kts | 193° |
| 2026-05-09 12:54 | 55.56990 | 12.14759 | 653 ft | 88 kts | 224° |
| 2026-05-09 12:55 | 55.57094 | 12.13686 | 683 ft | 99 kts | 296° |
| 2026-05-09 12:55 | 55.57444 | 12.12712 | 775 ft | 93 kts | 301° |
| 2026-05-09 12:55 | 55.57812 | 12.11752 | 764 ft | 95 kts | 304° |
| 2026-05-09 12:55 | 55.58191 | 12.10784 | 783 ft | 94 kts | 304° |
| 2026-05-09 12:56 | 55.58604 | 12.09899 | 801 ft | 93 kts | 315° |
| 2026-05-09 12:56 | 55.59076 | 12.09104 | 786 ft | 96 kts | 316° |
| 2026-05-09 12:56 | 55.59545 | 12.08279 | 818 ft | 93 kts | 315° |
| 2026-05-09 12:56 | 55.59906 | 12.07369 | 858 ft | 88 kts | 275° |
| 2026-05-09 12:57 | 55.60306 | 12.06781 | 863 ft | 88 kts | 8° |
| 2026-05-09 12:57 | 55.60403 | 12.07558 | 672 ft | 92 kts | 140° |
| 2026-05-09 12:57 | 55.60022 | 12.08128 | 808 ft | 52 kts | 124° |
| 2026-05-09 12:57 | 55.59799 | 12.08752 | 622 ft | 62 kts | 115° |
| 2026-05-09 12:58 | 55.59591 | 12.09398 | 553 ft | 56 kts | 122° |
| 2026-05-09 12:58 | 55.59409 | 12.10016 | 370 ft | 60 kts | 112° |
| 2026-05-09 12:58 | 55.59236 | 12.10662 | 284 ft | 57 kts | 111° |
| 2026-05-09 12:58 | 55.59073 | 12.11276 | 230 ft | 52 kts | 113° |
| 2026-05-09 12:59 | 55.58925 | 12.11846 | 143 ft | 45 kts | 115° |
| 2026-05-09 12:59 | 55.58789 | 12.12308 | 140 ft | 54 kts | 114° |
| 2026-05-09 12:59 | 55.58573 | 12.13032 | 223 ft | 74 kts | 118° |
| 2026-05-09 12:59 | 55.58335 | 12.13803 | 367 ft | 72 kts | 119° |
| 2026-05-09 13:00 | 55.58080 | 12.14557 | 490 ft | 72 kts | 122° |
| 2026-05-09 13:00 | 55.57738 | 12.15240 | 553 ft | 77 kts | 158° |
| 2026-05-09 13:00 | 55.57194 | 12.14832 | 571 ft | 91 kts | 207° |
| 2026-05-09 13:00 | 55.56883 | 12.13908 | 607 ft | 103 kts | 271° |
| 2026-05-09 13:01 | 55.57222 | 12.12855 | 745 ft | 94 kts | 307° |
| 2026-05-09 13:01 | 55.57603 | 12.11929 | 821 ft | 98 kts | 309° |
| 2026-05-09 13:01 | 55.58062 | 12.10998 | 876 ft | 100 kts | 315° |
| 2026-05-09 13:01 | 55.58590 | 12.10188 | 959 ft | 100 kts | 319° |
| 2026-05-09 13:02 | 55.59076 | 12.09308 | 949 ft | 105 kts | 296° |
| 2026-05-09 13:02 | 55.59414 | 12.08193 | 1014 ft | 102 kts | 295° |
| 2026-05-09 13:02 | 55.59670 | 12.07033 | 1032 ft | 102 kts | 276° |
| 2026-05-09 13:02 | 55.59747 | 12.05864 | 1121 ft | 96 kts | 310° |
| 2026-05-09 13:03 | 55.60268 | 12.06122 | 1036 ft | 94 kts | 81° |
| 2026-05-09 13:03 | 55.60133 | 12.07186 | 1016 ft | 73 kts | 114° |
| 2026-05-09 13:03 | 55.59956 | 12.07983 | 872 ft | 69 kts | 109° |
| 2026-05-09 13:03 | 55.59777 | 12.08731 | 692 ft | 66 kts | 120° |
| 2026-05-09 13:04 | 55.59586 | 12.09489 | 465 ft | 70 kts | 117° |
| 2026-05-09 13:04 | 55.59370 | 12.10212 | 325 ft | 65 kts | 112° |
| 2026-05-09 13:04 | 55.59187 | 12.10894 | 237 ft | 60 kts | 116° |
| 2026-05-09 13:04 | 55.59007 | 12.11554 | 174 ft | 61 kts | 120° |
| 2026-05-09 13:05 | 55.58839 | 12.12131 | 141 ft | 42 kts | 123° |
| 2026-05-09 13:05 | 55.58712 | 12.12589 | 139 ft | 56 kts | 122° |
| 2026-05-09 13:05 | 55.58495 | 12.13287 | 223 ft | 73 kts | 115° |
| 2026-05-09 13:05 | 55.58268 | 12.14184 | 339 ft | 83 kts | 116° |
| 2026-05-09 13:06 | 55.57981 | 12.15120 | 425 ft | 91 kts | 121° |
| 2026-05-09 13:06 | 55.57475 | 12.15126 | 610 ft | 90 kts | 224° |
| 2026-05-09 13:06 | 55.57415 | 12.14037 | 703 ft | 105 kts | 306° |
| 2026-05-09 13:06 | 55.57858 | 12.13113 | 902 ft | 99 kts | 305° |
| 2026-05-09 13:07 | 55.58322 | 12.12162 | 1002 ft | 104 kts | 311° |
| 2026-05-09 13:07 | 55.58803 | 12.11125 | 1022 ft | 110 kts | 305° |
| 2026-05-09 13:07 | 55.59257 | 12.10042 | 1066 ft | 112 kts | 302° |
| 2026-05-09 13:07 | 55.59689 | 12.08851 | 1073 ft | 115 kts | 298° |
| 2026-05-09 13:08 | 55.60028 | 12.07595 | 1121 ft | 114 kts | 289° |
| 2026-05-09 13:08 | 55.60305 | 12.06286 | 1170 ft | 113 kts | 291° |
| 2026-05-09 13:08 | 55.60596 | 12.05024 | 1272 ft | 109 kts | 287° |
| 2026-05-09 13:08 | 55.60821 | 12.03726 | 1307 ft | 111 kts | 283° |
| 2026-05-09 13:09 | 55.61048 | 12.02449 | 1402 ft | 109 kts | 288° |
| 2026-05-09 13:09 | 55.61285 | 12.01194 | 1487 ft | 105 kts | 289° |
| 2026-05-09 13:09 | 55.61496 | 11.99922 | 1391 ft | 107 kts | 280° |
| 2026-05-09 13:09 | 55.61676 | 11.98653 | 1327 ft | 107 kts | 281° |
| 2026-05-09 13:10 | 55.61808 | 11.97348 | 1242 ft | 109 kts | 275° |
| 2026-05-09 13:10 | 55.61934 | 11.95994 | 1142 ft | 112 kts | 279° |
| 2026-05-09 13:10 | 55.62032 | 11.94722 | 1203 ft | 100 kts | 280° |
| 2026-05-09 13:10 | 55.62265 | 11.93540 | 1159 ft | 105 kts | 303° |
| 2026-05-09 13:11 | 55.62871 | 11.92722 | 1028 ft | 112 kts | 337° |
| 2026-05-09 13:11 | 55.63607 | 11.92463 | 991 ft | 107 kts | 7° |
| 2026-05-09 13:11 | 55.64341 | 11.92600 | 988 ft | 105 kts | 16° |
| 2026-05-09 13:11 | 55.65013 | 11.93062 | 966 ft | 103 kts | 35° |
| 2026-05-09 13:12 | 55.65601 | 11.93763 | 981 ft | 100 kts | 38° |
| 2026-05-09 13:12 | 55.66171 | 11.94495 | 967 ft | 101 kts | 39° |
| 2026-05-09 13:12 | 55.66739 | 11.95220 | 997 ft | 98 kts | 39° |
| 2026-05-09 13:12 | 55.67289 | 11.95921 | 1000 ft | 99 kts | 39° |
| 2026-05-09 13:13 | 55.67856 | 11.96645 | 1010 ft | 99 kts | 39° |
| 2026-05-09 13:13 | 55.68433 | 11.97377 | 983 ft | 102 kts | 39° |
| 2026-05-09 13:13 | 55.69008 | 11.98102 | 1029 ft | 98 kts | 39° |
| 2026-05-09 13:13 | 55.69552 | 11.98871 | 1076 ft | 92 kts | 55° |
| 2026-05-09 13:14 | 55.69825 | 11.99938 | 1017 ft | 97 kts | 77° |
| 2026-05-09 13:14 | 55.69942 | 12.01111 | 1033 ft | 94 kts | 84° |
| 2026-05-09 13:16 | 55.69830 | 12.09292 | 953 ft | 100 kts | 87° |
| 2026-05-09 13:16 | 55.70013 | 12.10458 | 934 ft | 101 kts | 64° |
| 2026-05-09 13:16 | 55.70457 | 12.11451 | 952 ft | 100 kts | 46° |
| 2026-05-09 13:16 | 55.70932 | 12.12234 | 1048 ft | 96 kts | 44° |
| 2026-05-09 13:17 | 55.71503 | 12.12980 | 1049 ft | 101 kts | 37° |
| 2026-05-09 13:17 | 55.72062 | 12.13659 | 1136 ft | 97 kts | 39° |
| 2026-05-09 13:17 | 55.72611 | 12.14399 | 1148 ft | 99 kts | 44° |
| 2026-05-09 13:17 | 55.73132 | 12.15247 | 1131 ft | 103 kts | 45° |
| 2026-05-09 13:18 | 55.73627 | 12.16137 | 1151 ft | 101 kts | 52° |
| 2026-05-09 13:18 | 55.74012 | 12.17184 | 1134 ft | 101 kts | 65° |
| 2026-05-09 13:18 | 55.74305 | 12.18338 | 1146 ft | 101 kts | 67° |
| 2026-05-09 13:18 | 55.74599 | 12.19487 | 1154 ft | 100 kts | 69° |
| 2026-05-09 13:19 | 55.74822 | 12.20697 | 1156 ft | 100 kts | 79° |
| 2026-05-09 13:19 | 55.74956 | 12.21929 | 1152 ft | 100 kts | 78° |
| 2026-05-09 13:19 | 55.75157 | 12.23129 | 1168 ft | 100 kts | 73° |
| 2026-05-09 13:19 | 55.75315 | 12.24334 | 1197 ft | 98 kts | 82° |
| 2026-05-09 13:20 | 55.75438 | 12.25584 | 1185 ft | 100 kts | 81° |
| 2026-05-09 13:20 | 55.75559 | 12.26818 | 1170 ft | 101 kts | 81° |
| 2026-05-09 13:20 | 55.75681 | 12.28051 | 1217 ft | 97 kts | 81° |
| 2026-05-09 13:20 | 55.75824 | 12.29278 | 1191 ft | 101 kts | 78° |
| 2026-05-09 13:21 | 55.75942 | 12.30547 | 1200 ft | 99 kts | 85° |
| 2026-05-09 13:21 | 55.76037 | 12.31820 | 1204 ft | 99 kts | 83° |
| 2026-05-09 13:21 | 55.76109 | 12.33084 | 1195 ft | 101 kts | 85° |
| 2026-05-09 13:21 | 55.76173 | 12.34340 | 1201 ft | 100 kts | 86° |
| 2026-05-09 13:22 | 55.76214 | 12.35595 | 1213 ft | 100 kts | 86° |
| 2026-05-09 13:22 | 55.76192 | 12.36870 | 1236 ft | 98 kts | 93° |
| 2026-05-09 13:22 | 55.76178 | 12.38168 | 1205 ft | 102 kts | 89° |
| 2026-05-09 13:23 | 55.76336 | 12.42902 | 1388 ft | 96 kts | 82° |
| 2026-05-09 13:23 | 55.76459 | 12.44082 | 1423 ft | 96 kts | 80° |
| 2026-05-09 13:24 | 55.76578 | 12.45218 | 1490 ft | 93 kts | 79° |
| 2026-05-09 13:24 | 55.76713 | 12.46395 | 1395 ft | 102 kts | 82° |
| 2026-05-09 13:24 | 55.76774 | 12.47611 | 1460 ft | 92 kts | 86° |
| 2026-05-09 13:24 | 55.76856 | 12.48769 | 1427 ft | 97 kts | 83° |
| 2026-05-09 13:25 | 55.76967 | 12.49979 | 1378 ft | 101 kts | 81° |
| 2026-05-09 13:25 | 55.77078 | 12.51224 | 1323 ft | 102 kts | 83° |
| 2026-05-09 13:25 | 55.77261 | 12.53774 | 1163 ft | 108 kts | 86° |
| 2026-05-09 13:26 | 55.77314 | 12.55048 | 1223 ft | 98 kts | 86° |
| 2026-05-09 13:26 | 55.77362 | 12.56285 | 1159 ft | 103 kts | 89° |
| 2026-05-09 13:26 | 55.77392 | 12.57543 | 1125 ft | 103 kts | 87° |
| 2026-05-09 13:26 | 55.77471 | 12.58854 | 953 ft | 114 kts | 86° |
| 2026-05-09 13:27 | 55.77114 | 12.59968 | 759 ft | 114 kts | 159° |
| 2026-05-09 13:27 | 55.76356 | 12.59969 | 829 ft | 97 kts | 172° |
| 2026-05-09 13:27 | 55.75760 | 12.60451 | 873 ft | 92 kts | 143° |
| 2026-05-09 13:27 | 55.75251 | 12.61093 | 956 ft | 87 kts | 142° |
| 2026-05-09 13:28 | 55.74734 | 12.61635 | 1027 ft | 86 kts | 158° |
| 2026-05-09 13:28 | 55.74128 | 12.61900 | 1004 ft | 93 kts | 168° |
| 2026-05-09 13:28 | 55.73475 | 12.61945 | 1059 ft | 90 kts | 182° |
| 2026-05-09 13:28 | 55.72870 | 12.61733 | 1095 ft | 92 kts | 191° |
| 2026-05-09 13:29 | 55.72228 | 12.61460 | 1073 ft | 97 kts | 192° |
| 2026-05-09 13:29 | 55.71592 | 12.61054 | 1114 ft | 93 kts | 193° |
| 2026-05-09 13:29 | 55.70948 | 12.60749 | 1120 ft | 95 kts | 190° |
| 2026-05-09 13:29 | 55.70294 | 12.60498 | 1173 ft | 92 kts | 186° |
| 2026-05-09 13:30 | 55.69638 | 12.60284 | 1192 ft | 93 kts | 184° |
| 2026-05-09 13:30 | 55.68991 | 12.60031 | 1229 ft | 93 kts | 194° |
| 2026-05-09 13:30 | 55.68411 | 12.59568 | 1291 ft | 90 kts | 204° |
| 2026-05-09 13:30 | 55.67845 | 12.58953 | 1252 ft | 95 kts | 207° |
| 2026-05-09 13:31 | 55.67305 | 12.58268 | 1225 ft | 98 kts | 216° |
| 2026-05-09 13:31 | 55.66802 | 12.57501 | 1274 ft | 91 kts | 216° |
| 2026-05-09 13:31 | 55.66283 | 12.56815 | 1226 ft | 95 kts | 204° |
| 2026-05-09 13:31 | 55.65679 | 12.56323 | 1227 ft | 93 kts | 201° |
| 2026-05-09 13:32 | 55.65117 | 12.55794 | 1238 ft | 93 kts | 205° |
| 2026-05-09 13:32 | 55.63969 | 12.54688 | 1208 ft | 96 kts | 207° |
| 2026-05-09 13:32 | 55.63396 | 12.54089 | 1197 ft | 95 kts | 201° |
| 2026-05-09 13:33 | 55.62884 | 12.53361 | 1209 ft | 95 kts | 218° |
| 2026-05-09 13:33 | 55.62410 | 12.52537 | 1191 ft | 96 kts | 220° |
| 2026-05-09 13:33 | 55.61926 | 12.51702 | 1163 ft | 97 kts | 216° |
| 2026-05-09 13:33 | 55.61385 | 12.50967 | 1137 ft | 97 kts | 211° |
| 2026-05-09 13:34 | 55.60858 | 12.50227 | 1126 ft | 99 kts | 224° |
| 2026-05-09 13:34 | 55.60704 | 12.48984 | 1057 ft | 107 kts | 270° |
| 2026-05-09 13:34 | 55.60817 | 12.47702 | 1095 ft | 101 kts | 275° |
| 2026-05-09 13:34 | 55.60956 | 12.46448 | 1097 ft | 100 kts | 279° |
| 2026-05-09 13:35 | 55.61107 | 12.45227 | 1100 ft | 100 kts | 276° |
| 2026-05-09 13:35 | 55.61212 | 12.43955 | 1083 ft | 101 kts | 276° |
| 2026-05-09 13:35 | 55.61304 | 12.42668 | 1054 ft | 104 kts | 274° |
| 2026-05-09 13:35 | 55.61417 | 12.41377 | 1030 ft | 105 kts | 274° |
| 2026-05-09 13:36 | 55.61509 | 12.40099 | 1039 ft | 102 kts | 276° |
| 2026-05-09 13:36 | 55.61639 | 12.38866 | 1074 ft | 100 kts | 277° |
| 2026-05-09 13:36 | 55.61722 | 12.37678 | 1140 ft | 94 kts | 256° |
| 2026-05-09 13:36 | 55.61398 | 12.36576 | 1026 ft | 105 kts | 231° |
| 2026-05-09 13:37 | 55.61047 | 12.35531 | 1121 ft | 96 kts | 233° |
| 2026-05-09 13:37 | 55.60703 | 12.34512 | 1142 ft | 97 kts | 232° |
| 2026-05-09 13:37 | 55.60329 | 12.33463 | 1113 ft | 100 kts | 231° |
| 2026-05-09 13:37 | 55.59903 | 12.32478 | 1094 ft | 102 kts | 226° |
| 2026-05-09 13:38 | 55.59445 | 12.31507 | 1103 ft | 100 kts | 224° |
| 2026-05-09 13:38 | 55.59027 | 12.30565 | 1148 ft | 97 kts | 227° |
| 2026-05-09 13:38 | 55.58581 | 12.29647 | 1119 ft | 101 kts | 219° |
| 2026-05-09 13:38 | 55.58075 | 12.28781 | 1140 ft | 98 kts | 218° |
| 2026-05-09 13:39 | 55.57506 | 12.28927 | 988 ft | 101 kts | 133° |
| 2026-05-09 13:39 | 55.57009 | 12.29808 | 989 ft | 92 kts | 135° |
| 2026-05-09 13:39 | 55.56579 | 12.30525 | 1023 ft | 92 kts | 138° |
| 2026-05-09 13:39 | 55.56025 | 12.31327 | 838 ft | 100 kts | 137° |
| 2026-05-09 13:40 | 55.55505 | 12.32045 | 799 ft | 98 kts | 141° |
| 2026-05-09 13:40 | 55.54971 | 12.32763 | 869 ft | 90 kts | 139° |
| 2026-05-09 13:40 | 55.54478 | 12.33448 | 904 ft | 91 kts | 138° |
| 2026-05-09 13:40 | 55.53961 | 12.34134 | 866 ft | 97 kts | 155° |
| 2026-05-09 13:41 | 55.53249 | 12.33976 | 693 ft | 113 kts | 209° |
| 2026-05-09 13:41 | 55.52784 | 12.32981 | 816 ft | 100 kts | 240° |
| 2026-05-09 13:41 | 55.52515 | 12.31830 | 805 ft | 105 kts | 240° |
| 2026-05-09 13:41 | 55.52210 | 12.30699 | 841 ft | 103 kts | 242° |
| 2026-05-09 13:42 | 55.52161 | 12.29367 | 714 ft | 118 kts | 285° |
| 2026-05-09 13:42 | 55.52695 | 12.28251 | 589 ft | 121 kts | 328° |
| 2026-05-09 13:42 | 55.53413 | 12.27610 | 727 ft | 105 kts | 339° |
| 2026-05-09 13:42 | 55.54116 | 12.27144 | 734 ft | 111 kts | 338° |
| 2026-05-09 13:43 | 55.54816 | 12.26600 | 859 ft | 105 kts | 336° |
| 2026-05-09 13:43 | 55.55479 | 12.26055 | 917 ft | 108 kts | 336° |
| 2026-05-09 13:43 | 55.56155 | 12.25460 | 1013 ft | 107 kts | 332° |
| 2026-05-09 13:43 | 55.56747 | 12.24713 | 1149 ft | 105 kts | 321° |
| 2026-05-09 13:44 | 55.57375 | 12.24025 | 1232 ft | 107 kts | 330° |
| 2026-05-09 13:44 | 55.58026 | 12.23309 | 1288 ft | 111 kts | 328° |
| 2026-05-09 13:44 | 55.58593 | 12.22427 | 1413 ft | 108 kts | 295° |
| 2026-05-09 13:44 | 55.58334 | 12.21201 | 1114 ft | 122 kts | 204° |
| 2026-05-09 13:45 | 55.57848 | 12.20228 | 1381 ft | 105 kts | 242° |
| 2026-05-09 13:45 | 55.57791 | 12.18922 | 1432 ft | 113 kts | 278° |
| 2026-05-09 13:45 | 55.58155 | 12.17696 | 1316 ft | 117 kts | 317° |
| 2026-05-09 13:45 | 55.58887 | 12.17102 | 1196 ft | 115 kts | 349° |
| 2026-05-09 13:46 | 55.59647 | 12.16938 | 1180 ft | 104 kts | 7° |
| 2026-05-09 13:46 | 55.60342 | 12.17213 | 1109 ft | 103 kts | 24° |
| 2026-05-09 13:46 | 55.61005 | 12.17604 | 1109 ft | 99 kts | 22° |
| 2026-05-09 13:46 | 55.61663 | 12.17967 | 1079 ft | 99 kts | 11° |
| 2026-05-09 13:47 | 55.62094 | 12.17059 | 851 ft | 117 kts | 258° |
| 2026-05-09 13:47 | 55.61548 | 12.16279 | 817 ft | 94 kts | 196° |
| 2026-05-09 13:47 | 55.61118 | 12.15747 | 873 ft | 70 kts | 211° |
| 2026-05-09 13:47 | 55.60710 | 12.15292 | 716 ft | 71 kts | 199° |
| 2026-05-09 13:48 | 55.60276 | 12.14880 | 545 ft | 70 kts | 202° |
| 2026-05-09 13:48 | 55.59866 | 12.14474 | 400 ft | 69 kts | 202° |
| 2026-05-09 13:48 | 55.59441 | 12.14060 | 313 ft | 70 kts | 200° |
| 2026-05-09 13:48 | 55.59015 | 12.13622 | 177 ft | 71 kts | 205° |
| 2026-05-09 13:49 | 55.58638 | 12.13252 | 141 ft | 51 kts | 212° |
| 2026-05-09 13:49 | 55.58446 | 12.13026 | 137 ft | 14 kts | 226° |
| 2026-05-09 13:49 | 55.58443 | 12.12924 | 136 ft | 4 kts | 294° |
| 2026-05-09 13:49 | 55.58460 | 12.12871 | 136 ft | 6 kts | 300° |
| 2026-05-09 13:50 | 55.58483 | 12.12804 | 136 ft | 5 kts | 302° |
| 2026-05-09 13:50 | 55.58525 | 12.12778 | 137 ft | 9 kts | 26° |
| 2026-05-09 13:50 | 55.58548 | 12.12802 | 137 ft | 2 kts | 34° |
| 2026-05-09 13:50 | 55.58581 | 12.12839 | 138 ft | 9 kts | 31° |
| 2026-05-09 13:51 | 55.58640 | 12.12900 | 139 ft | 11 kts | 28° |
| 2026-05-09 13:51 | 55.58680 | 12.12941 | 139 ft | 0 kts | 32° |
| 2026-05-09 13:51 | 55.58682 | 12.12943 | 139 ft | 0 kts | 34° |
| 2026-05-09 13:51 | 55.58691 | 12.12953 | 140 ft | 4 kts | 28° |
| 2026-05-09 13:52 | 55.58734 | 12.12998 | 141 ft | 9 kts | 33° |
| 2026-05-09 13:52 | 55.58794 | 12.13017 | 141 ft | 8 kts | 342° |
| 2026-05-09 13:52 | 55.58855 | 12.13020 | 142 ft | 9 kts | 27° |
| 2026-05-09 13:52 | 55.58860 | 12.13025 | 142 ft | 0 kts | 27° |
| 2026-05-09 13:53 | 55.58873 | 12.13037 | 142 ft | 4 kts | 27° |
| 2026-05-09 13:53 | 55.58911 | 12.13054 | 143 ft | 7 kts | 328° |
| 2026-05-09 13:53 | 55.58942 | 12.12953 | 143 ft | 7 kts | 296° |
| 2026-05-09 13:53 | 55.58975 | 12.12832 | 143 ft | 11 kts | 290° |
| 2026-05-09 13:54 | 55.58941 | 12.12760 | 142 ft | 10 kts | 138° |
| 2026-05-09 13:54 | 55.58947 | 12.12810 | 142 ft | 0 kts | 27° |